Terminal Aerodrome Forecast
Issued by NWS

Current Version | Previous Version | Text Only | Print | Product List | Glossary Off
Versions: 1 2 3 4 5 6 7 8 9 10 11 12 13 14 15 16 17 18 19 20 21 22 23 24 25

000
FTUS41 KRLX 212329
TAFCKB
TAF
KCKB 212329Z 2200/2224 22006KT P6SM SCT100
     FM220600 25006KT P6SM BKN090
     FM221000 29007KT P6SM OVC060
     FM221100 30007KT P6SM BKN014
     FM221600 32006KT P6SM BKN023
     FM221800 31006KT P6SM BKN035=

USA.gov is the U.S. government's official web portal to all federal, state and local government web resources and services.